Main page
METAR-TAF:

METAR-TAF

Airports :

Yap, Yap Island, Micronesia

Yap International Airport

latitude: 09-29N, longitude: 138-05E, elevation: 28 m

Current weather observation

The report was made 2 hours and 0 minutes ago, at 16:55 UTC
Wind 8 kt from the South
Temperature 27°C
Humidity 84%
Pressure 1006 hPa
Visibility: 19.3 km
Few clouds at a height of 1600 ft
Scattered clouds at a height of 13000 ft
Broken clouds at a height of 30000 ft

METAR: PTYA 231655Z 17008KT 12SM FEW016 SCT130 BKN300 27/24 A2972 RMK SLP066 T02730243

Time: 04:55 (18:55 UTC)

Forecast

The report was made 1 hour and 35 minutes ago, at 17:20 UTC
Forecast valid from 23 at 18 UTC to 24 at 18 UTC
Wind 8 kt from the South/Southwest
Visibility: 10 km
Scattered clouds at a height of 1600 ft
Broken clouds at a height of 13000 ft
showers in vicinity

TAF: PTYA 231720Z 2318/2418 20008KT P6SM VCSH SCT016 BKN130

Weather observations and forecasts of more than 4000 airports (METAR and TAF reports).

The available stations are represented by yellow and red dots on the map.

Hover mouse over dot to see the name of the station.

Then click to see weather observations and forecasts.

To change the map : click on the green buttons with a black cross to zoom in, on the green button with a dash to zoom out, or on the green arrows for adjacent maps.


METAR-TAF: